Pierson, MI (49339)

5:36 PM EDT on May 29, 2015 (GMT -0400)
Ensley Center - Snow Farm | | Change Station
CLOSE
Current Station
Personal Weather Station
Location: Howard City, MI
Elevation: 982 ft
Nearby Weather Stations

Elev 982 ft 43.36 °N, 85.62 °W | Updated 3 minutes ago

Mostly Cloudy
Mostly Cloudy
68.2 °F
Feels Like 68.2 °F
N
1.7
Wind Variable Wind from East

Today
High -- | Low -- °F
--% Chance of Precip.
Yesterday
High -- | Low -- °F
Precip. -- in
6:06 AM 9:12 PM
Waxing Gibbous, 86% visible
Pressure 29.96 in
Visibility 7.0 miles
Clouds Scattered Clouds 3900 ft
Scattered Clouds 5500 ft
Mostly Cloudy 11000 ft
Dew Point 66 °F
Humidity 93%
Rainfall 0.45 in
Snow Depth Not available.
UV 3 out of 12
Pollen 9.10 out of 12
Air Quality Not available.
Flu Activity Sporadic
METAR KFFX 292111Z AUTO 19013G21KT 7SM SCT039 SCT055 BKN110 25/16 A2996 RMK AO2 T02510162

More Conditions Fewer Conditions

Pressure 29.96 in
Visibility 7.0 miles
Clouds Scattered Clouds 3900 ft
Scattered Clouds 5500 ft
Mostly Cloudy 11000 ft
Dew Point 66 °F
Humidity 93%
Rainfall 0.45 in
Snow Depth Not available.
UV 3 out of 12
Pollen 9.10 out of 12
Air Quality Not available.
Flu Activity Sporadic
METAR KFFX 292111Z AUTO 19013G21KT 7SM SCT039 SCT055 BKN110 25/16 A2996 RMK AO2 T02510162

More Conditions Fewer Conditions

10-Day Weather Forecast

Almanac

Astronomy

May. 29, 2015 Rise Set
Actual Time
Civil Twilight
Nautical Twilight
Astronomical Twilight
Moon
Length of Visible Light
Length of Day
Tomorrow will be .
, % of the Moon is Illuminated

Today's Extremes

State Highs State Lows

Community

WunderPhotos

Upload Photos

1,825,366 photos uploaded!

WunderBlogs® & News

Nearby

Air Quality

  Air Quality AQ Index Pollutant
Not available.

Snow Depth

Station Depth Elevation

Earthquake Activity

City Distance Mag. Time & Date
Minimum magnitude displayed is 2.5.

Coastal Water Temperatures

Place Temperature

Stations

Nearby Weather Stations

Station Location Temp. Windchill Dew Point Humidity Wind Precip. Elev Updated Type